sensor_id;sensor_type;location;lat;lon;timestamp;P1;durP1;ratioP1;P2;durP2;ratioP2
72864;SDS011;61000;48.120;11.548;2023-06-14T00:01:50;7.28;;;4.80;;
72864;SDS011;61000;48.120;11.548;2023-06-14T00:04:17;10.05;;;4.32;;
72864;SDS011;61000;48.120;11.548;2023-06-14T00:06:45;6.30;;;4.20;;
72864;SDS011;61000;48.120;11.548;2023-06-14T00:09:13;5.53;;;4.40;;
72864;SDS011;61000;48.120;11.548;2023-06-14T00:11:44;7.15;;;5.22;;
72864;SDS011;61000;48.120;11.548;2023-06-14T00:14:10;6.80;;;4.57;;
72864;SDS011;61000;48.120;11.548;2023-06-14T00:16:37;4.70;;;4.25;;
72864;SDS011;61000;48.120;11.548;2023-06-14T00:19:07;5.63;;;4.63;;
72864;SDS011;61000;48.120;11.548;2023-06-14T00:21:35;5.25;;;4.13;;
72864;SDS011;61000;48.120;11.548;2023-06-14T00:24:03;5.38;;;4.32;;
72864;SDS011;61000;48.120;11.548;2023-06-14T00:26:30;4.22;;;3.72;;
72864;SDS011;61000;48.120;11.548;2023-06-14T00:28:59;5.68;;;4.40;;
72864;SDS011;61000;48.120;11.548;2023-06-14T00:31:25;5.18;;;4.57;;
72864;SDS011;61000;48.120;11.548;2023-06-14T00:33:53;7.97;;;4.45;;
72864;SDS011;61000;48.120;11.548;2023-06-14T00:36:20;5.95;;;4.32;;
72864;SDS011;61000;48.120;11.548;2023-06-14T00:38:47;6.30;;;4.25;;
72864;SDS011;61000;48.120;11.548;2023-06-14T00:41:14;6.25;;;4.13;;
72864;SDS011;61000;48.120;11.548;2023-06-14T00:43:41;7.60;;;4.57;;
72864;SDS011;61000;48.120;11.548;2023-06-14T00:46:09;4.72;;;4.18;;
72864;SDS011;61000;48.120;11.548;2023-06-14T00:48:37;8.95;;;4.22;;
72864;SDS011;61000;48.120;11.548;2023-06-14T00:51:05;5.70;;;4.60;;
72864;SDS011;61000;48.120;11.548;2023-06-14T00:53:32;5.07;;;4.10;;
72864;SDS011;61000;48.120;11.548;2023-06-14T00:56:00;5.43;;;4.38;;
72864;SDS011;61000;48.120;11.548;2023-06-14T00:58:28;5.43;;;3.92;;
72864;SDS011;61000;48.120;11.548;2023-06-14T01:00:56;4.68;;;4.18;;
72864;SDS011;61000;48.120;11.548;2023-06-14T01:03:26;5.10;;;4.30;;
72864;SDS011;61000;48.120;11.548;2023-06-14T01:05:54;7.38;;;4.38;;
72864;SDS011;61000;48.120;11.548;2023-06-14T01:08:28;5.50;;;4.13;;
72864;SDS011;61000;48.120;11.548;2023-06-14T01:11:05;5.20;;;4.40;;
72864;SDS011;61000;48.120;11.548;2023-06-14T01:13:38;6.90;;;4.53;;
72864;SDS011;61000;48.120;11.548;2023-06-14T01:16:09;5.15;;;3.97;;
72864;SDS011;61000;48.120;11.548;2023-06-14T01:18:38;5.00;;;3.88;;
72864;SDS011;61000;48.120;11.548;2023-06-14T01:21:19;10.10;;;4.50;;
72864;SDS011;61000;48.120;11.548;2023-06-14T01:23:49;5.68;;;4.13;;
72864;SDS011;61000;48.120;11.548;2023-06-14T01:26:18;7.47;;;4.40;;
72864;SDS011;61000;48.120;11.548;2023-06-14T01:28:46;6.57;;;4.63;;
72864;SDS011;61000;48.120;11.548;2023-06-14T01:31:16;7.53;;;4.00;;
72864;SDS011;61000;48.120;11.548;2023-06-14T01:33:44;7.70;;;4.68;;
72864;SDS011;61000;48.120;11.548;2023-06-14T01:36:12;6.03;;;4.72;;
72864;SDS011;61000;48.120;11.548;2023-06-14T01:38:40;6.93;;;4.78;;
72864;SDS011;61000;48.120;11.548;2023-06-14T01:41:11;9.07;;;4.55;;
72864;SDS011;61000;48.120;11.548;2023-06-14T01:43:39;4.93;;;4.40;;
72864;SDS011;61000;48.120;11.548;2023-06-14T01:46:07;6.68;;;4.95;;
72864;SDS011;61000;48.120;11.548;2023-06-14T01:48:35;4.45;;;4.05;;
72864;SDS011;61000;48.120;11.548;2023-06-14T01:51:02;8.18;;;4.60;;
72864;SDS011;61000;48.120;11.548;2023-06-14T01:53:29;7.53;;;4.50;;
72864;SDS011;61000;48.120;11.548;2023-06-14T01:55:56;8.13;;;4.50;;
72864;SDS011;61000;48.120;11.548;2023-06-14T01:58:25;5.07;;;4.40;;
72864;SDS011;61000;48.120;11.548;2023-06-14T02:00:52;7.90;;;4.82;;
72864;SDS011;61000;48.120;11.548;2023-06-14T02:03:20;8.50;;;4.78;;
72864;SDS011;61000;48.120;11.548;2023-06-14T02:05:48;7.40;;;4.90;;
72864;SDS011;61000;48.120;11.548;2023-06-14T02:08:16;5.50;;;4.72;;
72864;SDS011;61000;48.120;11.548;2023-06-14T02:10:43;6.55;;;4.13;;
72864;SDS011;61000;48.120;11.548;2023-06-14T02:13:10;6.00;;;4.60;;
72864;SDS011;61000;48.120;11.548;2023-06-14T02:15:39;8.35;;;4.22;;
72864;SDS011;61000;48.120;11.548;2023-06-14T02:18:08;5.57;;;4.47;;
72864;SDS011;61000;48.120;11.548;2023-06-14T02:20:36;6.85;;;3.95;;
72864;SDS011;61000;48.120;11.548;2023-06-14T02:23:03;4.97;;;4.32;;
72864;SDS011;61000;48.120;11.548;2023-06-14T02:25:30;8.32;;;4.50;;
72864;SDS011;61000;48.120;11.548;2023-06-14T02:27:57;8.15;;;4.60;;
72864;SDS011;61000;48.120;11.548;2023-06-14T02:30:24;10.10;;;4.60;;
72864;SDS011;61000;48.120;11.548;2023-06-14T02:32:56;7.22;;;4.20;;
72864;SDS011;61000;48.120;11.548;2023-06-14T02:35:24;6.18;;;4.70;;
72864;SDS011;61000;48.120;11.548;2023-06-14T02:37:51;5.78;;;4.20;;
72864;SDS011;61000;48.120;11.548;2023-06-14T02:40:21;5.63;;;4.35;;
72864;SDS011;61000;48.120;11.548;2023-06-14T02:42:48;5.70;;;4.43;;
72864;SDS011;61000;48.120;11.548;2023-06-14T02:45:15;5.85;;;4.28;;
72864;SDS011;61000;48.120;11.548;2023-06-14T02:47:43;5.45;;;4.40;;
72864;SDS011;61000;48.120;11.548;2023-06-14T02:50:13;5.60;;;4.18;;
72864;SDS011;61000;48.120;11.548;2023-06-14T02:52:41;6.95;;;4.35;;
72864;SDS011;61000;48.120;11.548;2023-06-14T02:55:09;4.53;;;3.97;;
72864;SDS011;61000;48.120;11.548;2023-06-14T02:57:37;7.68;;;4.75;;
72864;SDS011;61000;48.120;11.548;2023-06-14T03:00:05;4.95;;;4.50;;
72864;SDS011;61000;48.120;11.548;2023-06-14T03:02:35;9.18;;;4.72;;
72864;SDS011;61000;48.120;11.548;2023-06-14T03:05:02;9.52;;;5.55;;
72864;SDS011;61000;48.120;11.548;2023-06-14T03:07:33;5.43;;;4.93;;
72864;SDS011;61000;48.120;11.548;2023-06-14T03:10:00;6.93;;;5.38;;
72864;SDS011;61000;48.120;11.548;2023-06-14T03:12:29;7.47;;;4.70;;
72864;SDS011;61000;48.120;11.548;2023-06-14T03:14:56;6.93;;;5.38;;
72864;SDS011;61000;48.120;11.548;2023-06-14T03:17:27;7.30;;;5.13;;
72864;SDS011;61000;48.120;11.548;2023-06-14T03:19:55;5.53;;;4.95;;
72864;SDS011;61000;48.120;11.548;2023-06-14T03:22:22;7.32;;;5.43;;
72864;SDS011;61000;48.120;11.548;2023-06-14T03:24:52;5.75;;;4.78;;
72864;SDS011;61000;48.120;11.548;2023-06-14T03:27:20;5.40;;;4.40;;
72864;SDS011;61000;48.120;11.548;2023-06-14T03:29:47;7.47;;;4.65;;
72864;SDS011;61000;48.120;11.548;2023-06-14T03:32:14;8.63;;;4.55;;
72864;SDS011;61000;48.120;11.548;2023-06-14T03:34:43;8.90;;;5.18;;
72864;SDS011;61000;48.120;11.548;2023-06-14T03:37:15;6.78;;;5.05;;
72864;SDS011;61000;48.120;11.548;2023-06-14T03:39:43;6.65;;;4.70;;
72864;SDS011;61000;48.120;11.548;2023-06-14T03:42:16;10.13;;;5.22;;
72864;SDS011;61000;48.120;11.548;2023-06-14T03:44:43;7.22;;;4.70;;
72864;SDS011;61000;48.120;11.548;2023-06-14T03:47:11;8.40;;;5.63;;
72864;SDS011;61000;48.120;11.548;2023-06-14T03:49:37;9.30;;;4.78;;
72864;SDS011;61000;48.120;11.548;2023-06-14T03:52:05;9.30;;;5.47;;
72864;SDS011;61000;48.120;11.548;2023-06-14T03:54:34;7.10;;;4.65;;
72864;SDS011;61000;48.120;11.548;2023-06-14T03:57:01;5.70;;;4.50;;
72864;SDS011;61000;48.120;11.548;2023-06-14T03:59:30;9.52;;;5.40;;
72864;SDS011;61000;48.120;11.548;2023-06-14T04:01:57;7.32;;;4.82;;
72864;SDS011;61000;48.120;11.548;2023-06-14T04:04:24;7.30;;;4.60;;
72864;SDS011;61000;48.120;11.548;2023-06-14T04:06:56;6.38;;;5.13;;
72864;SDS011;61000;48.120;11.548;2023-06-14T04:09:23;8.15;;;5.20;;
72864;SDS011;61000;48.120;11.548;2023-06-14T04:11:51;7.93;;;4.88;;
72864;SDS011;61000;48.120;11.548;2023-06-14T04:14:18;7.25;;;5.13;;
72864;SDS011;61000;48.120;11.548;2023-06-14T04:16:46;7.65;;;4.85;;
72864;SDS011;61000;48.120;11.548;2023-06-14T04:19:18;7.32;;;4.78;;
72864;SDS011;61000;48.120;11.548;2023-06-14T04:21:45;7.20;;;4.85;;
72864;SDS011;61000;48.120;11.548;2023-06-14T04:24:13;6.35;;;4.88;;
72864;SDS011;61000;48.120;11.548;2023-06-14T04:26:42;6.85;;;4.63;;
72864;SDS011;61000;48.120;11.548;2023-06-14T04:29:10;5.25;;;4.72;;
72864;SDS011;61000;48.120;11.548;2023-06-14T04:31:40;7.13;;;5.32;;
72864;SDS011;61000;48.120;11.548;2023-06-14T04:34:10;6.75;;;5.10;;
72864;SDS011;61000;48.120;11.548;2023-06-14T04:36:42;7.05;;;4.68;;
72864;SDS011;61000;48.120;11.548;2023-06-14T04:39:14;7.07;;;5.65;;
72864;SDS011;61000;48.120;11.548;2023-06-14T04:41:43;7.85;;;5.57;;
72864;SDS011;61000;48.120;11.548;2023-06-14T04:44:10;9.50;;;4.65;;
72864;SDS011;61000;48.120;11.548;2023-06-14T04:46:41;9.82;;;5.43;;
72864;SDS011;61000;48.120;11.548;2023-06-14T04:49:15;9.05;;;5.35;;
72864;SDS011;61000;48.120;11.548;2023-06-14T04:51:42;7.45;;;5.25;;
72864;SDS011;61000;48.120;11.548;2023-06-14T04:54:11;7.57;;;4.68;;
72864;SDS011;61000;48.120;11.548;2023-06-14T04:56:40;6.63;;;4.85;;
72864;SDS011;61000;48.120;11.548;2023-06-14T04:59:09;7.82;;;4.40;;
72864;SDS011;61000;48.120;11.548;2023-06-14T05:01:36;7.10;;;4.97;;
72864;SDS011;61000;48.120;11.548;2023-06-14T05:04:03;8.68;;;4.68;;
72864;SDS011;61000;48.120;11.548;2023-06-14T05:06:32;6.65;;;4.63;;
72864;SDS011;61000;48.120;11.548;2023-06-14T05:08:58;6.88;;;4.57;;
72864;SDS011;61000;48.120;11.548;2023-06-14T05:11:25;7.55;;;5.30;;
72864;SDS011;61000;48.120;11.548;2023-06-14T05:13:52;6.28;;;4.70;;
72864;SDS011;61000;48.120;11.548;2023-06-14T05:16:19;7.00;;;5.25;;
72864;SDS011;61000;48.120;11.548;2023-06-14T05:18:50;8.38;;;4.57;;
72864;SDS011;61000;48.120;11.548;2023-06-14T05:21:17;11.82;;;5.25;;
72864;SDS011;61000;48.120;11.548;2023-06-14T05:23:45;7.18;;;4.80;;
72864;SDS011;61000;48.120;11.548;2023-06-14T05:26:12;9.75;;;4.55;;
72864;SDS011;61000;48.120;11.548;2023-06-14T05:28:39;7.53;;;4.43;;
72864;SDS011;61000;48.120;11.548;2023-06-14T05:31:06;6.85;;;4.22;;
72864;SDS011;61000;48.120;11.548;2023-06-14T05:33:33;10.27;;;4.57;;
72864;SDS011;61000;48.120;11.548;2023-06-14T05:36:00;9.38;;;4.35;;
72864;SDS011;61000;48.120;11.548;2023-06-14T05:38:27;7.68;;;4.85;;
72864;SDS011;61000;48.120;11.548;2023-06-14T05:40:55;6.65;;;4.68;;
72864;SDS011;61000;48.120;11.548;2023-06-14T05:43:22;6.22;;;4.68;;
72864;SDS011;61000;48.120;11.548;2023-06-14T05:45:49;5.07;;;4.03;;
72864;SDS011;61000;48.120;11.548;2023-06-14T05:48:16;11.10;;;5.15;;
72864;SDS011;61000;48.120;11.548;2023-06-14T05:50:43;7.03;;;4.30;;
72864;SDS011;61000;48.120;11.548;2023-06-14T05:53:10;9.55;;;5.05;;
72864;SDS011;61000;48.120;11.548;2023-06-14T05:55:37;7.60;;;4.53;;
72864;SDS011;61000;48.120;11.548;2023-06-14T05:58:05;6.35;;;4.45;;
72864;SDS011;61000;48.120;11.548;2023-06-14T06:00:32;5.03;;;4.22;;
72864;SDS011;61000;48.120;11.548;2023-06-14T06:02:59;12.82;;;4.65;;
72864;SDS011;61000;48.120;11.548;2023-06-14T06:05:26;6.90;;;4.93;;
72864;SDS011;61000;48.120;11.548;2023-06-14T06:07:53;8.57;;;4.38;;
72864;SDS011;61000;48.120;11.548;2023-06-14T06:10:21;8.80;;;4.97;;
72864;SDS011;61000;48.120;11.548;2023-06-14T06:12:49;5.72;;;4.35;;
72864;SDS011;61000;48.120;11.548;2023-06-14T06:15:18;4.55;;;3.97;;
72864;SDS011;61000;48.120;11.548;2023-06-14T06:17:45;9.93;;;3.90;;
72864;SDS011;61000;48.120;11.548;2023-06-14T06:20:12;6.85;;;4.35;;
72864;SDS011;61000;48.120;11.548;2023-06-14T06:22:39;9.43;;;4.38;;
72864;SDS011;61000;48.120;11.548;2023-06-14T06:25:06;5.82;;;4.18;;
72864;SDS011;61000;48.120;11.548;2023-06-14T06:27:34;6.63;;;4.10;;
72864;SDS011;61000;48.120;11.548;2023-06-14T06:30:03;5.50;;;4.07;;
72864;SDS011;61000;48.120;11.548;2023-06-14T06:32:32;4.65;;;3.95;;
72864;SDS011;61000;48.120;11.548;2023-06-14T06:34:58;7.18;;;3.80;;
72864;SDS011;61000;48.120;11.548;2023-06-14T06:37:26;8.32;;;4.18;;
72864;SDS011;61000;48.120;11.548;2023-06-14T06:39:52;4.80;;;3.70;;
72864;SDS011;61000;48.120;11.548;2023-06-14T06:42:19;6.32;;;4.15;;
72864;SDS011;61000;48.120;11.548;2023-06-14T06:44:49;8.65;;;3.97;;
72864;SDS011;61000;48.120;11.548;2023-06-14T06:47:16;7.82;;;4.13;;
72864;SDS011;61000;48.120;11.548;2023-06-14T06:49:44;5.47;;;4.05;;
72864;SDS011;61000;48.120;11.548;2023-06-14T06:52:11;5.20;;;3.80;;
72864;SDS011;61000;48.120;11.548;2023-06-14T06:54:38;6.38;;;3.85;;
72864;SDS011;61000;48.120;11.548;2023-06-14T06:57:05;6.93;;;3.97;;
72864;SDS011;61000;48.120;11.548;2023-06-14T06:59:32;5.18;;;4.10;;
72864;SDS011;61000;48.120;11.548;2023-06-14T07:02:00;7.35;;;3.88;;
72864;SDS011;61000;48.120;11.548;2023-06-14T07:04:26;7.57;;;4.07;;
72864;SDS011;61000;48.120;11.548;2023-06-14T07:06:55;4.78;;;4.25;;
72864;SDS011;61000;48.120;11.548;2023-06-14T07:09:21;7.10;;;4.45;;
72864;SDS011;61000;48.120;11.548;2023-06-14T07:11:49;7.68;;;4.47;;
72864;SDS011;61000;48.120;11.548;2023-06-14T07:14:17;6.72;;;4.30;;
72864;SDS011;61000;48.120;11.548;2023-06-14T07:16:44;8.77;;;4.18;;
72864;SDS011;61000;48.120;11.548;2023-06-14T07:19:11;4.50;;;3.50;;
72864;SDS011;61000;48.120;11.548;2023-06-14T07:21:38;12.52;;;3.55;;
72864;SDS011;61000;48.120;11.548;2023-06-14T07:24:07;8.60;;;3.85;;
72864;SDS011;61000;48.120;11.548;2023-06-14T07:26:34;7.03;;;3.55;;
72864;SDS011;61000;48.120;11.548;2023-06-14T07:29:01;5.53;;;4.25;;
72864;SDS011;61000;48.120;11.548;2023-06-14T07:31:28;4.95;;;3.50;;
72864;SDS011;61000;48.120;11.548;2023-06-14T07:33:55;10.18;;;3.90;;
72864;SDS011;61000;48.120;11.548;2023-06-14T07:36:22;5.72;;;3.95;;
72864;SDS011;61000;48.120;11.548;2023-06-14T07:38:49;8.35;;;3.72;;
72864;SDS011;61000;48.120;11.548;2023-06-14T07:41:17;5.40;;;4.13;;
72864;SDS011;61000;48.120;11.548;2023-06-14T07:43:44;7.00;;;3.90;;
72864;SDS011;61000;48.120;11.548;2023-06-14T07:46:11;5.05;;;3.53;;
72864;SDS011;61000;48.120;11.548;2023-06-14T07:48:38;4.45;;;3.60;;
72864;SDS011;61000;48.120;11.548;2023-06-14T07:51:05;5.10;;;3.70;;
72864;SDS011;61000;48.120;11.548;2023-06-14T07:53:32;11.32;;;3.95;;
72864;SDS011;61000;48.120;11.548;2023-06-14T07:55:59;7.85;;;3.53;;
72864;SDS011;61000;48.120;11.548;2023-06-14T07:58:29;5.10;;;3.45;;
72864;SDS011;61000;48.120;11.548;2023-06-14T08:00:56;7.07;;;3.85;;
72864;SDS011;61000;48.120;11.548;2023-06-14T08:03:22;3.53;;;3.05;;
72864;SDS011;61000;48.120;11.548;2023-06-14T08:05:50;7.25;;;3.10;;
72864;SDS011;61000;48.120;11.548;2023-06-14T08:08:17;5.32;;;3.13;;
72864;SDS011;61000;48.120;11.548;2023-06-14T08:10:44;4.45;;;2.95;;
72864;SDS011;61000;48.120;11.548;2023-06-14T08:13:11;5.15;;;3.42;;
72864;SDS011;61000;48.120;11.548;2023-06-14T08:15:39;5.07;;;2.75;;
72864;SDS011;61000;48.120;11.548;2023-06-14T08:18:06;3.05;;;2.55;;
72864;SDS011;61000;48.120;11.548;2023-06-14T08:20:33;6.93;;;3.53;;
72864;SDS011;61000;48.120;11.548;2023-06-14T08:23:02;3.50;;;2.90;;
72864;SDS011;61000;48.120;11.548;2023-06-14T08:25:30;4.30;;;3.15;;
72864;SDS011;61000;48.120;11.548;2023-06-14T08:27:58;7.25;;;3.25;;
72864;SDS011;61000;48.120;11.548;2023-06-14T08:30:25;4.47;;;2.60;;
72864;SDS011;61000;48.120;11.548;2023-06-14T08:32:54;3.75;;;3.03;;
72864;SDS011;61000;48.120;11.548;2023-06-14T08:35:21;4.72;;;3.05;;
72864;SDS011;61000;48.120;11.548;2023-06-14T08:37:48;7.25;;;3.00;;
72864;SDS011;61000;48.120;11.548;2023-06-14T08:40:18;5.50;;;3.45;;
72864;SDS011;61000;48.120;11.548;2023-06-14T08:42:50;6.50;;;3.30;;
72864;SDS011;61000;48.120;11.548;2023-06-14T08:45:18;6.05;;;3.60;;
72864;SDS011;61000;48.120;11.548;2023-06-14T08:47:46;8.02;;;3.65;;
72864;SDS011;61000;48.120;11.548;2023-06-14T08:50:19;6.78;;;3.50;;
72864;SDS011;61000;48.120;11.548;2023-06-14T08:52:50;5.63;;;4.00;;
72864;SDS011;61000;48.120;11.548;2023-06-14T08:55:22;3.78;;;2.88;;
72864;SDS011;61000;48.120;11.548;2023-06-14T08:57:54;7.05;;;3.10;;
72864;SDS011;61000;48.120;11.548;2023-06-14T09:00:23;5.32;;;3.00;;
72864;SDS011;61000;48.120;11.548;2023-06-14T09:02:50;5.53;;;2.88;;
72864;SDS011;61000;48.120;11.548;2023-06-14T09:05:22;3.33;;;3.03;;
72864;SDS011;61000;48.120;11.548;2023-06-14T09:07:49;6.65;;;3.42;;
72864;SDS011;61000;48.120;11.548;2023-06-14T09:10:16;6.85;;;3.20;;
72864;SDS011;61000;48.120;11.548;2023-06-14T09:12:43;4.00;;;2.55;;
72864;SDS011;61000;48.120;11.548;2023-06-14T09:15:10;6.45;;;3.08;;
72864;SDS011;61000;48.120;11.548;2023-06-14T09:17:39;7.80;;;3.03;;
72864;SDS011;61000;48.120;11.548;2023-06-14T09:20:06;2.83;;;2.40;;
72864;SDS011;61000;48.120;11.548;2023-06-14T09:22:37;3.80;;;2.40;;
72864;SDS011;61000;48.120;11.548;2023-06-14T09:25:04;7.55;;;2.80;;
72864;SDS011;61000;48.120;11.548;2023-06-14T09:27:32;3.72;;;2.70;;
72864;SDS011;61000;48.120;11.548;2023-06-14T09:30:01;8.00;;;3.15;;
72864;SDS011;61000;48.120;11.548;2023-06-14T09:32:29;4.82;;;2.70;;
72864;SDS011;61000;48.120;11.548;2023-06-14T09:34:56;5.45;;;4.28;;
72864;SDS011;61000;48.120;11.548;2023-06-14T09:37:27;3.33;;;2.70;;
72864;SDS011;61000;48.120;11.548;2023-06-14T09:39:57;4.38;;;2.90;;
72864;SDS011;61000;48.120;11.548;2023-06-14T09:42:24;3.58;;;2.60;;
72864;SDS011;61000;48.120;11.548;2023-06-14T09:44:53;3.92;;;2.80;;
72864;SDS011;61000;48.120;11.548;2023-06-14T09:47:22;4.88;;;2.67;;
72864;SDS011;61000;48.120;11.548;2023-06-14T09:49:51;3.08;;;2.70;;
72864;SDS011;61000;48.120;11.548;2023-06-14T09:52:20;4.25;;;2.80;;
72864;SDS011;61000;48.120;11.548;2023-06-14T09:54:49;4.15;;;3.00;;
72864;SDS011;61000;48.120;11.548;2023-06-14T09:57:20;4.47;;;2.70;;
72864;SDS011;61000;48.120;11.548;2023-06-14T09:59:49;2.58;;;2.38;;
72864;SDS011;61000;48.120;11.548;2023-06-14T10:02:21;4.45;;;2.75;;
72864;SDS011;61000;48.120;11.548;2023-06-14T10:04:53;3.20;;;2.75;;
72864;SDS011;61000;48.120;11.548;2023-06-14T10:07:26;5.53;;;2.75;;
72864;SDS011;61000;48.120;11.548;2023-06-14T10:09:55;5.50;;;2.97;;
72864;SDS011;61000;48.120;11.548;2023-06-14T10:12:26;4.47;;;3.03;;
72864;SDS011;61000;48.120;11.548;2023-06-14T10:14:55;2.83;;;2.60;;
72864;SDS011;61000;48.120;11.548;2023-06-14T10:18:04;3.33;;;2.38;;
72864;SDS011;61000;48.120;11.548;2023-06-14T10:20:37;3.22;;;2.63;;
72864;SDS011;61000;48.120;11.548;2023-06-14T10:23:12;4.95;;;3.25;;
72864;SDS011;61000;48.120;11.548;2023-06-14T10:25:43;4.05;;;2.78;;
72864;SDS011;61000;48.120;11.548;2023-06-14T10:28:18;5.45;;;3.10;;
72864;SDS011;61000;48.120;11.548;2023-06-14T10:31:07;3.60;;;2.50;;
72864;SDS011;61000;48.120;11.548;2023-06-14T10:33:35;4.72;;;2.92;;
72864;SDS011;61000;48.120;11.548;2023-06-14T10:36:09;4.07;;;2.88;;
72864;SDS011;61000;48.120;11.548;2023-06-14T10:38:37;4.05;;;2.80;;
72864;SDS011;61000;48.120;11.548;2023-06-14T10:41:05;7.10;;;3.33;;
72864;SDS011;61000;48.120;11.548;2023-06-14T10:43:34;6.25;;;3.05;;
72864;SDS011;61000;48.120;11.548;2023-06-14T10:46:16;5.53;;;3.05;;
72864;SDS011;61000;48.120;11.548;2023-06-14T10:48:48;4.10;;;3.00;;
72864;SDS011;61000;48.120;11.548;2023-06-14T10:51:15;4.90;;;3.47;;
72864;SDS011;61000;48.120;11.548;2023-06-14T10:53:45;8.25;;;3.63;;
72864;SDS011;61000;48.120;11.548;2023-06-14T10:56:28;6.00;;;3.42;;
72864;SDS011;61000;48.120;11.548;2023-06-14T10:58:57;4.90;;;3.20;;
72864;SDS011;61000;48.120;11.548;2023-06-14T11:01:35;13.65;;;4.43;;
72864;SDS011;61000;48.120;11.548;2023-06-14T11:04:09;5.05;;;3.00;;
72864;SDS011;61000;48.120;11.548;2023-06-14T11:06:44;5.22;;;3.78;;
72864;SDS011;61000;48.120;11.548;2023-06-14T11:12:17;5.70;;;3.42;;
72864;SDS011;61000;48.120;11.548;2023-06-14T11:14:46;8.20;;;3.30;;
72864;SDS011;61000;48.120;11.548;2023-06-14T11:17:14;3.67;;;3.00;;
72864;SDS011;61000;48.120;11.548;2023-06-14T11:19:41;4.20;;;3.60;;
72864;SDS011;61000;48.120;11.548;2023-06-14T11:22:07;6.82;;;3.33;;
72864;SDS011;61000;48.120;11.548;2023-06-14T11:24:34;5.80;;;3.97;;
72864;SDS011;61000;48.120;11.548;2023-06-14T11:27:01;5.80;;;3.53;;
72864;SDS011;61000;48.120;11.548;2023-06-14T11:29:29;4.30;;;3.50;;
72864;SDS011;61000;48.120;11.548;2023-06-14T11:31:58;5.15;;;3.30;;
72864;SDS011;61000;48.120;11.548;2023-06-14T11:34:25;6.43;;;3.45;;
72864;SDS011;61000;48.120;11.548;2023-06-14T11:36:52;4.93;;;3.10;;
72864;SDS011;61000;48.120;11.548;2023-06-14T11:39:23;3.53;;;3.20;;
72864;SDS011;61000;48.120;11.548;2023-06-14T11:41:51;8.00;;;3.17;;
72864;SDS011;61000;48.120;11.548;2023-06-14T11:44:18;7.82;;;4.38;;
72864;SDS011;61000;48.120;11.548;2023-06-14T11:46:45;10.75;;;3.55;;
72864;SDS011;61000;48.120;11.548;2023-06-14T11:49:13;6.55;;;3.20;;
72864;SDS011;61000;48.120;11.548;2023-06-14T11:51:40;7.82;;;3.40;;
72864;SDS011;61000;48.120;11.548;2023-06-14T11:54:09;3.72;;;3.22;;
72864;SDS011;61000;48.120;11.548;2023-06-14T11:56:37;9.23;;;3.42;;
72864;SDS011;61000;48.120;11.548;2023-06-14T11:59:04;4.00;;;3.08;;
72864;SDS011;61000;48.120;11.548;2023-06-14T12:01:32;4.07;;;3.67;;
72864;SDS011;61000;48.120;11.548;2023-06-14T12:04:02;4.65;;;3.38;;
72864;SDS011;61000;48.120;11.548;2023-06-14T12:06:30;3.58;;;3.28;;
72864;SDS011;61000;48.120;11.548;2023-06-14T12:09:03;3.60;;;3.10;;
72864;SDS011;61000;48.120;11.548;2023-06-14T12:11:35;5.15;;;2.78;;
72864;SDS011;61000;48.120;11.548;2023-06-14T12:14:03;4.40;;;3.63;;
72864;SDS011;61000;48.120;11.548;2023-06-14T12:16:30;7.90;;;3.95;;
72864;SDS011;61000;48.120;11.548;2023-06-14T12:19:00;3.65;;;3.22;;
72864;SDS011;61000;48.120;11.548;2023-06-14T12:21:35;4.70;;;3.13;;
72864;SDS011;61000;48.120;11.548;2023-06-14T12:24:04;6.93;;;3.75;;
72864;SDS011;61000;48.120;11.548;2023-06-14T12:26:32;5.90;;;3.25;;
72864;SDS011;61000;48.120;11.548;2023-06-14T12:28:59;5.78;;;3.15;;
72864;SDS011;61000;48.120;11.548;2023-06-14T12:31:26;3.70;;;3.10;;
72864;SDS011;61000;48.120;11.548;2023-06-14T12:33:54;4.82;;;3.47;;
72864;SDS011;61000;48.120;11.548;2023-06-14T12:36:21;10.20;;;3.50;;
72864;SDS011;61000;48.120;11.548;2023-06-14T12:38:50;4.80;;;3.00;;
72864;SDS011;61000;48.120;11.548;2023-06-14T12:41:18;5.60;;;3.20;;
72864;SDS011;61000;48.120;11.548;2023-06-14T12:43:46;5.13;;;3.60;;
72864;SDS011;61000;48.120;11.548;2023-06-14T12:46:13;5.15;;;3.58;;
72864;SDS011;61000;48.120;11.548;2023-06-14T12:48:40;5.05;;;3.30;;
72864;SDS011;61000;48.120;11.548;2023-06-14T12:51:07;5.57;;;3.53;;
72864;SDS011;61000;48.120;11.548;2023-06-14T12:53:34;5.00;;;2.88;;
72864;SDS011;61000;48.120;11.548;2023-06-14T12:56:02;6.78;;;3.33;;
72864;SDS011;61000;48.120;11.548;2023-06-14T12:58:29;6.18;;;3.10;;
72864;SDS011;61000;48.120;11.548;2023-06-14T13:00:56;4.30;;;3.67;;
72864;SDS011;61000;48.120;11.548;2023-06-14T13:03:23;8.00;;;3.45;;
72864;SDS011;61000;48.120;11.548;2023-06-14T13:05:50;4.90;;;3.38;;
72864;SDS011;61000;48.120;11.548;2023-06-14T13:08:17;5.05;;;3.40;;
72864;SDS011;61000;48.120;11.548;2023-06-14T13:10:44;4.20;;;2.97;;
72864;SDS011;61000;48.120;11.548;2023-06-14T13:13:13;5.65;;;3.30;;
72864;SDS011;61000;48.120;11.548;2023-06-14T13:15:40;4.25;;;3.28;;
72864;SDS011;61000;48.120;11.548;2023-06-14T13:18:07;6.85;;;3.08;;
72864;SDS011;61000;48.120;11.548;2023-06-14T13:20:34;5.57;;;3.42;;
72864;SDS011;61000;48.120;11.548;2023-06-14T13:23:00;3.83;;;3.40;;
72864;SDS011;61000;48.120;11.548;2023-06-14T13:25:29;5.30;;;3.20;;
72864;SDS011;61000;48.120;11.548;2023-06-14T13:27:56;4.47;;;2.85;;
72864;SDS011;61000;48.120;11.548;2023-06-14T13:30:24;4.38;;;3.55;;
72864;SDS011;61000;48.120;11.548;2023-06-14T13:32:51;3.42;;;3.13;;
72864;SDS011;61000;48.120;11.548;2023-06-14T13:35:18;5.10;;;3.67;;
72864;SDS011;61000;48.120;11.548;2023-06-14T13:37:45;5.05;;;3.35;;
72864;SDS011;61000;48.120;11.548;2023-06-14T13:40:12;5.15;;;3.17;;
72864;SDS011;61000;48.120;11.548;2023-06-14T13:42:39;4.07;;;3.40;;
72864;SDS011;61000;48.120;11.548;2023-06-14T13:45:07;5.28;;;3.42;;
72864;SDS011;61000;48.120;11.548;2023-06-14T13:47:36;5.50;;;3.15;;
72864;SDS011;61000;48.120;11.548;2023-06-14T13:50:03;5.65;;;3.33;;
72864;SDS011;61000;48.120;11.548;2023-06-14T13:52:31;4.15;;;2.90;;
72864;SDS011;61000;48.120;11.548;2023-06-14T13:54:58;4.03;;;2.95;;
72864;SDS011;61000;48.120;11.548;2023-06-14T13:57:25;4.03;;;3.00;;
72864;SDS011;61000;48.120;11.548;2023-06-14T13:59:52;4.18;;;3.22;;
72864;SDS011;61000;48.120;11.548;2023-06-14T14:02:20;3.88;;;3.08;;
72864;SDS011;61000;48.120;11.548;2023-06-14T14:04:49;4.93;;;3.38;;
72864;SDS011;61000;48.120;11.548;2023-06-14T14:07:18;6.43;;;3.38;;
72864;SDS011;61000;48.120;11.548;2023-06-14T14:09:45;4.63;;;3.40;;
72864;SDS011;61000;48.120;11.548;2023-06-14T14:12:12;5.38;;;3.05;;
72864;SDS011;61000;48.120;11.548;2023-06-14T14:14:40;4.10;;;3.50;;
72864;SDS011;61000;48.120;11.548;2023-06-14T14:17:06;4.70;;;3.03;;
72864;SDS011;61000;48.120;11.548;2023-06-14T14:19:33;4.72;;;2.95;;
72864;SDS011;61000;48.120;11.548;2023-06-14T14:22:02;4.03;;;2.88;;
72864;SDS011;61000;48.120;11.548;2023-06-14T14:24:29;3.47;;;3.17;;
72864;SDS011;61000;48.120;11.548;2023-06-14T14:26:56;5.63;;;2.80;;
72864;SDS011;61000;48.120;11.548;2023-06-14T14:29:25;4.40;;;2.90;;
72864;SDS011;61000;48.120;11.548;2023-06-14T14:31:54;4.03;;;3.28;;
72864;SDS011;61000;48.120;11.548;2023-06-14T14:34:21;4.70;;;3.20;;
72864;SDS011;61000;48.120;11.548;2023-06-14T14:36:48;6.65;;;3.33;;
72864;SDS011;61000;48.120;11.548;2023-06-14T14:39:16;5.88;;;2.83;;
72864;SDS011;61000;48.120;11.548;2023-06-14T14:41:43;3.58;;;3.03;;
72864;SDS011;61000;48.120;11.548;2023-06-14T14:44:10;4.72;;;3.05;;